sensor_id;sensor_type;location;lat;lon;timestamp;pressure;altitude;pressure_sealevel;temperature;humidity
25526;BME280;13424;48.424;11.258;2022-10-13T00:00:43;96148.41;;;12.55;88.87
25526;BME280;13424;48.424;11.258;2022-10-13T00:03:09;96147.75;;;12.48;89.45
25526;BME280;13424;48.424;11.258;2022-10-13T00:05:40;96150.91;;;12.74;88.39
25526;BME280;13424;48.424;11.258;2022-10-13T00:08:06;96146.22;;;12.52;89.67
25526;BME280;13424;48.424;11.258;2022-10-13T00:10:40;96150.63;;;12.58;88.74
25526;BME280;13424;48.424;11.258;2022-10-13T00:13:07;96150.06;;;12.56;90.51
25526;BME280;13424;48.424;11.258;2022-10-13T00:15:41;96152.81;;;12.62;88.23
25526;BME280;13424;48.424;11.258;2022-10-13T00:18:07;96150.91;;;12.74;85.87
25526;BME280;13424;48.424;11.258;2022-10-13T00:20:34;96156.41;;;12.67;84.46
25526;BME280;13424;48.424;11.258;2022-10-13T00:23:00;96156.25;;;12.74;83.99
25526;BME280;13424;48.424;11.258;2022-10-13T00:25:26;96153.28;;;12.58;84.52
25526;BME280;13424;48.424;11.258;2022-10-13T00:27:52;96164.31;;;12.62;83.71
25526;BME280;13424;48.424;11.258;2022-10-13T00:34:25;96157.97;;;12.51;82.32
25526;BME280;13424;48.424;11.258;2022-10-13T00:36:51;96155.19;;;12.46;82.03
25526;BME280;13424;48.424;11.258;2022-10-13T00:39:17;96152.88;;;12.38;80.98
25526;BME280;13424;48.424;11.258;2022-10-13T00:41:43;96156.00;;;12.47;81.67
25526;BME280;13424;48.424;11.258;2022-10-13T00:47:37;96158.41;;;12.20;80.97
25526;BME280;13424;48.424;11.258;2022-10-13T00:50:08;96152.13;;;11.67;81.83
25526;BME280;13424;48.424;11.258;2022-10-13T00:52:34;96152.53;;;11.94;81.35
25526;BME280;13424;48.424;11.258;2022-10-13T00:55:02;96152.75;;;11.81;81.26
25526;BME280;13424;48.424;11.258;2022-10-13T00:57:29;96150.06;;;11.69;82.87
25526;BME280;13424;48.424;11.258;2022-10-13T00:59:55;96158.09;;;11.81;82.75
25526;BME280;13424;48.424;11.258;2022-10-13T01:02:21;96166.44;;;11.73;82.55
25526;BME280;13424;48.424;11.258;2022-10-13T01:04:48;96158.53;;;11.78;81.12
25526;BME280;13424;48.424;11.258;2022-10-13T01:07:15;96163.53;;;11.63;81.30
25526;BME280;13424;48.424;11.258;2022-10-13T01:09:43;96156.31;;;11.40;82.25
25526;BME280;13424;48.424;11.258;2022-10-13T01:15:43;96157.81;;;11.24;82.34
25526;BME280;13424;48.424;11.258;2022-10-13T01:18:32;96154.28;;;11.12;83.76
25526;BME280;13424;48.424;11.258;2022-10-13T01:21:12;96154.47;;;11.40;81.81
25526;BME280;13424;48.424;11.258;2022-10-13T01:30:44;96147.06;;;11.54;80.48
25526;BME280;13424;48.424;11.258;2022-10-13T01:36:25;96150.63;;;11.60;81.45
25526;BME280;13424;48.424;11.258;2022-10-13T01:39:44;96146.25;;;11.77;80.79
25526;BME280;13424;48.424;11.258;2022-10-13T01:41:53;96139.59;;;11.44;80.33
25526;BME280;13424;48.424;11.258;2022-10-13T01:44:34;96143.84;;;11.10;81.27
25526;BME280;13424;48.424;11.258;2022-10-13T01:47:02;96136.31;;;11.07;81.02
25526;BME280;13424;48.424;11.258;2022-10-13T01:53:35;96142.25;;;10.79;81.52
25526;BME280;13424;48.424;11.258;2022-10-13T01:56:02;96141.50;;;10.90;80.79
25526;BME280;13424;48.424;11.258;2022-10-13T01:58:30;96143.47;;;10.65;81.23
25526;BME280;13424;48.424;11.258;2022-10-13T02:04:08;96141.19;;;10.39;82.65
25526;BME280;13424;48.424;11.258;2022-10-13T02:06:43;96137.63;;;10.45;81.77
25526;BME280;13424;48.424;11.258;2022-10-13T02:09:30;96140.88;;;10.47;81.67
25526;BME280;13424;48.424;11.258;2022-10-13T02:12:05;96135.28;;;10.37;81.98
25526;BME280;13424;48.424;11.258;2022-10-13T02:14:35;96134.06;;;10.32;82.23
25526;BME280;13424;48.424;11.258;2022-10-13T02:17:09;96133.91;;;10.46;81.75
25526;BME280;13424;48.424;11.258;2022-10-13T02:19:37;96131.97;;;10.53;81.30
25526;BME280;13424;48.424;11.258;2022-10-13T02:22:05;96139.88;;;10.59;81.76
25526;BME280;13424;48.424;11.258;2022-10-13T02:24:32;96132.88;;;10.47;83.55
25526;BME280;13424;48.424;11.258;2022-10-13T02:26:59;96128.53;;;10.64;83.52
25526;BME280;13424;48.424;11.258;2022-10-13T02:29:25;96123.50;;;10.56;84.13
25526;BME280;13424;48.424;11.258;2022-10-13T02:31:51;96121.63;;;10.75;83.64
25526;BME280;13424;48.424;11.258;2022-10-13T02:34:22;96122.59;;;10.62;83.78
25526;BME280;13424;48.424;11.258;2022-10-13T02:36:48;96124.19;;;10.51;83.00
25526;BME280;13424;48.424;11.258;2022-10-13T02:39:14;96124.13;;;10.40;83.04
25526;BME280;13424;48.424;11.258;2022-10-13T02:41:40;96126.72;;;10.46;83.80
25526;BME280;13424;48.424;11.258;2022-10-13T02:44:06;96112.56;;;10.46;84.07
25526;BME280;13424;48.424;11.258;2022-10-13T02:46:40;96121.34;;;10.65;84.10
25526;BME280;13424;48.424;11.258;2022-10-13T02:49:06;96119.34;;;11.02;83.06
25526;BME280;13424;48.424;11.258;2022-10-13T02:51:31;96122.28;;;11.24;83.28
25526;BME280;13424;48.424;11.258;2022-10-13T02:53:57;96109.28;;;11.27;83.88
25526;BME280;13424;48.424;11.258;2022-10-13T02:56:23;96114.03;;;11.25;84.40
25526;BME280;13424;48.424;11.258;2022-10-13T02:58:49;96112.06;;;11.32;84.81
25526;BME280;13424;48.424;11.258;2022-10-13T03:01:15;96101.06;;;11.40;83.77
25526;BME280;13424;48.424;11.258;2022-10-13T03:03:41;96111.28;;;11.55;83.49
25526;BME280;13424;48.424;11.258;2022-10-13T03:06:07;96108.94;;;11.70;83.26
25526;BME280;13424;48.424;11.258;2022-10-13T03:08:34;96111.75;;;11.87;83.33
25526;BME280;13424;48.424;11.258;2022-10-13T03:11:01;96107.88;;;11.83;83.45
25526;BME280;13424;48.424;11.258;2022-10-13T03:13:27;96110.44;;;12.01;82.56
25526;BME280;13424;48.424;11.258;2022-10-13T03:15:59;96108.34;;;12.04;82.88
25526;BME280;13424;48.424;11.258;2022-10-13T03:18:28;96109.16;;;12.04;82.98
25526;BME280;13424;48.424;11.258;2022-10-13T03:20:59;96110.56;;;11.95;83.40
25526;BME280;13424;48.424;11.258;2022-10-13T03:23:26;96119.03;;;12.04;82.69
25526;BME280;13424;48.424;11.258;2022-10-13T03:25:52;96123.09;;;12.06;82.47
25526;BME280;13424;48.424;11.258;2022-10-13T03:28:19;96119.03;;;12.04;82.92
25526;BME280;13424;48.424;11.258;2022-10-13T03:30:46;96124.38;;;12.04;83.44
25526;BME280;13424;48.424;11.258;2022-10-13T03:33:12;96126.81;;;12.05;83.52
25526;BME280;13424;48.424;11.258;2022-10-13T03:35:38;96129.50;;;11.93;83.49
25526;BME280;13424;48.424;11.258;2022-10-13T03:38:03;96125.75;;;12.18;82.99
25526;BME280;13424;48.424;11.258;2022-10-13T03:40:31;96131.41;;;12.21;82.24
25526;BME280;13424;48.424;11.258;2022-10-13T03:42:57;96134.16;;;12.38;81.94
25526;BME280;13424;48.424;11.258;2022-10-13T03:45:23;96134.06;;;12.33;82.33
25526;BME280;13424;48.424;11.258;2022-10-13T03:51:22;96130.34;;;12.34;82.11
25526;BME280;13424;48.424;11.258;2022-10-13T03:53:50;96126.13;;;12.38;81.87
25526;BME280;13424;48.424;11.258;2022-10-13T03:56:23;96136.03;;;12.38;82.26
25526;BME280;13424;48.424;11.258;2022-10-13T03:58:59;96135.78;;;12.39;82.02
25526;BME280;13424;48.424;11.258;2022-10-13T04:01:28;96136.22;;;12.48;81.77
25526;BME280;13424;48.424;11.258;2022-10-13T04:03:55;96136.44;;;12.46;81.74
25526;BME280;13424;48.424;11.258;2022-10-13T04:06:22;96131.03;;;12.41;81.96
25526;BME280;13424;48.424;11.258;2022-10-13T04:08:49;96132.97;;;12.46;82.40
25526;BME280;13424;48.424;11.258;2022-10-13T04:11:15;96135.78;;;12.39;82.12
25526;BME280;13424;48.424;11.258;2022-10-13T04:13:42;96140.19;;;12.74;80.62
25526;BME280;13424;48.424;11.258;2022-10-13T04:16:20;96133.00;;;12.63;81.49
25526;BME280;13424;48.424;11.258;2022-10-13T04:18:54;96139.94;;;12.47;81.85
25526;BME280;13424;48.424;11.258;2022-10-13T04:21:21;96135.94;;;12.61;81.42
25526;BME280;13424;48.424;11.258;2022-10-13T04:23:47;96140.09;;;12.69;80.94
25526;BME280;13424;48.424;11.258;2022-10-13T04:26:19;96136.75;;;12.62;81.70
25526;BME280;13424;48.424;11.258;2022-10-13T04:28:49;96139.88;;;12.87;80.57
25526;BME280;13424;48.424;11.258;2022-10-13T04:31:27;96142.63;;;12.75;81.40
25526;BME280;13424;48.424;11.258;2022-10-13T04:33:53;96142.00;;;12.85;80.63
25526;BME280;13424;48.424;11.258;2022-10-13T04:36:19;96137.84;;;12.77;81.25
25526;BME280;13424;48.424;11.258;2022-10-13T04:38:48;96138.75;;;12.83;81.69
25526;BME280;13424;48.424;11.258;2022-10-13T04:41:15;96136.13;;;12.71;81.61
25526;BME280;13424;48.424;11.258;2022-10-13T04:43:41;96125.09;;;12.68;81.78
25526;BME280;13424;48.424;11.258;2022-10-13T04:46:16;96125.75;;;12.75;82.11
25526;BME280;13424;48.424;11.258;2022-10-13T04:48:43;96121.22;;;12.75;81.98
25526;BME280;13424;48.424;11.258;2022-10-13T04:51:13;96126.56;;;12.75;82.11
25526;BME280;13424;48.424;11.258;2022-10-13T04:53:39;96122.53;;;12.73;82.19
25526;BME280;13424;48.424;11.258;2022-10-13T04:56:11;96121.13;;;12.70;82.52
25526;BME280;13424;48.424;11.258;2022-10-13T04:58:38;96125.00;;;12.63;83.09
25526;BME280;13424;48.424;11.258;2022-10-13T05:01:07;96117.84;;;12.97;81.17
25526;BME280;13424;48.424;11.258;2022-10-13T05:03:35;96112.91;;;12.89;81.71
25526;BME280;13424;48.424;11.258;2022-10-13T05:06:01;96116.69;;;12.76;82.19
25526;BME280;13424;48.424;11.258;2022-10-13T05:08:27;96112.91;;;12.89;82.20
25526;BME280;13424;48.424;11.258;2022-10-13T05:10:59;96117.50;;;12.93;81.80
25526;BME280;13424;48.424;11.258;2022-10-13T05:13:27;96117.31;;;13.11;81.54
25526;BME280;13424;48.424;11.258;2022-10-13T05:15:56;96114.78;;;13.05;81.62
25526;BME280;13424;48.424;11.258;2022-10-13T05:18:23;96119.13;;;13.23;81.10
25526;BME280;13424;48.424;11.258;2022-10-13T05:20:49;96113.78;;;13.11;81.88
25526;BME280;13424;48.424;11.258;2022-10-13T05:23:15;96115.88;;;12.92;82.65
25526;BME280;13424;48.424;11.258;2022-10-13T05:25:41;96110.22;;;12.89;82.63
25526;BME280;13424;48.424;11.258;2022-10-13T05:28:11;96109.56;;;12.98;82.41
25526;BME280;13424;48.424;11.258;2022-10-13T05:30:37;96118.59;;;13.09;82.34
25526;BME280;13424;48.424;11.258;2022-10-13T05:33:03;96118.97;;;12.84;83.44
25526;BME280;13424;48.424;11.258;2022-10-13T05:35:29;96114.28;;;13.08;82.90
25526;BME280;13424;48.424;11.258;2022-10-13T05:37:55;96105.19;;;12.92;83.26
25526;BME280;13424;48.424;11.258;2022-10-13T05:40:27;96112.25;;;12.98;83.36
25526;BME280;13424;48.424;11.258;2022-10-13T05:42:58;96114.31;;;12.79;84.06
25526;BME280;13424;48.424;11.258;2022-10-13T05:45:25;96114.44;;;13.01;83.19
25526;BME280;13424;48.424;11.258;2022-10-13T05:47:52;96111.50;;;13.03;83.32
25526;BME280;13424;48.424;11.258;2022-10-13T05:50:18;96103.28;;;12.76;84.82
25526;BME280;13424;48.424;11.258;2022-10-13T05:52:44;96102.75;;;13.07;83.39
25526;BME280;13424;48.424;11.258;2022-10-13T05:55:10;96103.81;;;13.06;83.51
25526;BME280;13424;48.424;11.258;2022-10-13T05:57:44;96109.28;;;13.11;82.99
25526;BME280;13424;48.424;11.258;2022-10-13T06:00:16;96104.88;;;13.05;83.30
25526;BME280;13424;48.424;11.258;2022-10-13T06:03:06;96102.72;;;13.36;82.00
25526;BME280;13424;48.424;11.258;2022-10-13T06:05:33;96106.78;;;13.38;82.30
25526;BME280;13424;48.424;11.258;2022-10-13T06:08:00;96114.97;;;13.32;83.43
25526;BME280;13424;48.424;11.258;2022-10-13T06:10:26;96118.16;;;13.29;82.92
25526;BME280;13424;48.424;11.258;2022-10-13T06:12:52;96117.25;;;13.40;83.12
25526;BME280;13424;48.424;11.258;2022-10-13T06:15:18;96107.88;;;13.43;83.05
25526;BME280;13424;48.424;11.258;2022-10-13T06:17:44;96112.69;;;13.24;83.94
25526;BME280;13424;48.424;11.258;2022-10-13T06:20:10;96120.66;;;13.52;82.82
25526;BME280;13424;48.424;11.258;2022-10-13T06:22:37;96120.56;;;13.47;83.14
25526;BME280;13424;48.424;11.258;2022-10-13T06:25:05;96112.66;;;13.57;83.15
25526;BME280;13424;48.424;11.258;2022-10-13T06:27:31;96116.16;;;13.58;82.73
25526;BME280;13424;48.424;11.258;2022-10-13T06:29:58;96118.44;;;13.49;82.40
25526;BME280;13424;48.424;11.258;2022-10-13T06:32:24;96125.66;;;13.65;82.39
25526;BME280;13424;48.424;11.258;2022-10-13T06:34:49;96116.41;;;13.56;83.17
25526;BME280;13424;48.424;11.258;2022-10-13T06:37:15;96117.47;;;13.55;83.34
25526;BME280;13424;48.424;11.258;2022-10-13T06:39:41;96116.06;;;13.19;84.61
25526;BME280;13424;48.424;11.258;2022-10-13T06:42:07;96122.84;;;13.55;83.82
25526;BME280;13424;48.424;11.258;2022-10-13T06:44:36;96121.13;;;13.49;83.15
25526;BME280;13424;48.424;11.258;2022-10-13T06:47:03;96118.59;;;13.43;84.35
25526;BME280;13424;48.424;11.258;2022-10-13T06:49:30;96120.13;;;13.72;84.18
25526;BME280;13424;48.424;11.258;2022-10-13T06:51:55;96121.44;;;14.08;82.31
25526;BME280;13424;48.424;11.258;2022-10-13T06:54:21;96112.44;;;13.97;82.40
25526;BME280;13424;48.424;11.258;2022-10-13T06:56:47;96116.22;;;13.80;84.08
25526;BME280;13424;48.424;11.258;2022-10-13T06:59:13;96114.94;;;14.04;82.52
25526;BME280;13424;48.424;11.258;2022-10-13T07:01:39;96122.13;;;13.99;83.10
25526;BME280;13424;48.424;11.258;2022-10-13T07:04:08;96126.47;;;13.83;83.97
25526;BME280;13424;48.424;11.258;2022-10-13T07:06:34;96124.84;;;14.04;83.24
25526;BME280;13424;48.424;11.258;2022-10-13T07:09:06;96126.47;;;13.83;83.53
25526;BME280;13424;48.424;11.258;2022-10-13T07:11:33;96119.91;;;13.57;85.15
25526;BME280;13424;48.424;11.258;2022-10-13T07:13:59;96121.63;;;13.29;84.87
25526;BME280;13424;48.424;11.258;2022-10-13T07:16:25;96115.22;;;13.30;85.12
25526;BME280;13424;48.424;11.258;2022-10-13T07:18:51;96114.03;;;13.77;83.38
25526;BME280;13424;48.424;11.258;2022-10-13T07:21:17;96105.97;;;13.38;85.19
25526;BME280;13424;48.424;11.258;2022-10-13T07:23:43;96104.09;;;13.38;85.82
25526;BME280;13424;48.424;11.258;2022-10-13T07:26:11;96105.13;;;13.04;87.08
25526;BME280;13424;48.424;11.258;2022-10-13T07:28:38;96106.69;;;13.33;86.34
25526;BME280;13424;48.424;11.258;2022-10-13T07:31:15;96098.72;;;13.38;86.34
25526;BME280;13424;48.424;11.258;2022-10-13T07:33:44;96113.19;;;13.54;86.20
25526;BME280;13424;48.424;11.258;2022-10-13T07:40:16;96111.56;;;13.92;84.24
25526;BME280;13424;48.424;11.258;2022-10-13T07:42:42;96105.78;;;14.00;84.36
25526;BME280;13424;48.424;11.258;2022-10-13T07:45:08;96095.72;;;13.35;87.46
25526;BME280;13424;48.424;11.258;2022-10-13T07:47:34;96093.13;;;13.40;87.08
25526;BME280;13424;48.424;11.258;2022-10-13T07:50:00;96090.56;;;13.28;87.76
25526;BME280;13424;48.424;11.258;2022-10-13T07:52:26;96088.53;;;13.35;87.44
25526;BME280;13424;48.424;11.258;2022-10-13T07:54:52;96091.25;;;13.40;87.67
25526;BME280;13424;48.424;11.258;2022-10-13T07:57:18;96100.22;;;13.29;88.44
25526;BME280;13424;48.424;11.258;2022-10-13T07:59:44;96100.56;;;13.72;85.89
25526;BME280;13424;48.424;11.258;2022-10-13T08:02:12;96103.94;;;14.06;85.14
25526;BME280;13424;48.424;11.258;2022-10-13T08:05:35;96106.25;;;14.41;84.04
25526;BME280;13424;48.424;11.258;2022-10-13T08:08:01;96110.81;;;14.40;83.42
25526;BME280;13424;48.424;11.258;2022-10-13T08:10:27;96116.19;;;14.18;83.67
25526;BME280;13424;48.424;11.258;2022-10-13T08:12:54;96118.56;;;14.59;82.79
25526;BME280;13424;48.424;11.258;2022-10-13T08:15:19;96112.09;;;14.82;82.28
25526;BME280;13424;48.424;11.258;2022-10-13T08:17:45;96112.19;;;14.65;83.80
25526;BME280;13424;48.424;11.258;2022-10-13T08:20:11;96107.44;;;14.72;82.58
25526;BME280;13424;48.424;11.258;2022-10-13T08:22:38;96113.78;;;14.88;82.43
25526;BME280;13424;48.424;11.258;2022-10-13T08:25:04;96110.44;;;15.07;81.53
25526;BME280;13424;48.424;11.258;2022-10-13T08:27:31;96103.78;;;15.10;82.01
25526;BME280;13424;48.424;11.258;2022-10-13T08:29:57;96114.53;;;15.10;82.50
25526;BME280;13424;48.424;11.258;2022-10-13T08:32:23;96101.84;;;15.38;81.26
25526;BME280;13424;48.424;11.258;2022-10-13T08:34:49;96105.72;;;15.52;80.55
25526;BME280;13424;48.424;11.258;2022-10-13T08:41:25;96094.66;;;15.85;80.68
25526;BME280;13424;48.424;11.258;2022-10-13T08:44:09;96101.41;;;15.88;80.18
25526;BME280;13424;48.424;11.258;2022-10-13T08:46:45;96093.63;;;15.91;81.01
25526;BME280;13424;48.424;11.258;2022-10-13T08:49:13;96091.38;;;15.78;80.76
25526;BME280;13424;48.424;11.258;2022-10-13T08:51:40;96089.13;;;16.07;80.33
25526;BME280;13424;48.424;11.258;2022-10-13T08:54:06;96088.38;;;16.22;80.25
25526;BME280;13424;48.424;11.258;2022-10-13T08:56:38;96089.47;;;16.26;80.57
25526;BME280;13424;48.424;11.258;2022-10-13T08:59:04;96090.97;;;15.97;81.69
25526;BME280;13424;48.424;11.258;2022-10-13T09:01:35;96085.59;;;16.69;79.42
25526;BME280;13424;48.424;11.258;2022-10-13T09:04:30;96090.75;;;16.76;79.08
25526;BME280;13424;48.424;11.258;2022-10-13T09:07:22;96080.50;;;16.88;78.89
25526;BME280;13424;48.424;11.258;2022-10-13T09:09:53;96083.22;;;17.03;78.49
25526;BME280;13424;48.424;11.258;2022-10-13T09:12:21;96085.09;;;17.49;76.68
25526;BME280;13424;48.424;11.258;2022-10-13T09:15:07;96091.31;;;17.39;76.56
25526;BME280;13424;48.424;11.258;2022-10-13T09:17:36;96088.06;;;17.42;77.21
25526;BME280;13424;48.424;11.258;2022-10-13T09:20:22;96088.84;;;16.87;78.73
25526;BME280;13424;48.424;11.258;2022-10-13T09:23:02;96078.91;;;17.08;78.24
25526;BME280;13424;48.424;11.258;2022-10-13T09:25:29;96082.13;;;17.50;77.13
25526;BME280;13424;48.424;11.258;2022-10-13T09:28:17;96086.47;;;17.26;78.04
25526;BME280;13424;48.424;11.258;2022-10-13T09:30:45;96085.09;;;17.44;77.31
25526;BME280;13424;48.424;11.258;2022-10-13T09:38:20;96089.94;;;17.82;75.94
25526;BME280;13424;48.424;11.258;2022-10-13T09:50:27;96082.69;;;17.78;76.94
25526;BME280;13424;48.424;11.258;2022-10-13T09:55:42;96077.34;;;18.32;74.92
25526;BME280;13424;48.424;11.258;2022-10-13T09:58:26;96079.06;;;18.13;74.25
25526;BME280;13424;48.424;11.258;2022-10-13T10:00:52;96077.59;;;18.41;74.34
25526;BME280;13424;48.424;11.258;2022-10-13T10:03:33;96074.78;;;18.56;73.81
25526;BME280;13424;48.424;11.258;2022-10-13T10:06:03;96064.75;;;18.12;75.37
25526;BME280;13424;48.424;11.258;2022-10-13T10:09:02;96060.22;;;19.02;73.64
25526;BME280;13424;48.424;11.258;2022-10-13T10:11:40;96070.25;;;19.69;71.74
25526;BME280;13424;48.424;11.258;2022-10-13T10:14:32;96069.78;;;19.28;71.08
25526;BME280;13424;48.424;11.258;2022-10-13T10:21:42;96065.31;;;18.69;71.81
25526;BME280;13424;48.424;11.258;2022-10-13T10:27:20;96071.41;;;18.90;71.02
25526;BME280;13424;48.424;11.258;2022-10-13T10:30:17;96057.47;;;19.12;71.60
25526;BME280;13424;48.424;11.258;2022-10-13T10:33:12;96062.78;;;19.22;69.06
25526;BME280;13424;48.424;11.258;2022-10-13T10:36:12;96062.03;;;19.11;70.19
25526;BME280;13424;48.424;11.258;2022-10-13T10:41:55;96056.28;;;19.23;70.37
25526;BME280;13424;48.424;11.258;2022-10-13T10:44:37;96055.91;;;19.01;70.84
25526;BME280;13424;48.424;11.258;2022-10-13T10:47:13;96051.59;;;19.34;68.36
25526;BME280;13424;48.424;11.258;2022-10-13T10:49:42;96047.03;;;19.29;68.63
25526;BME280;13424;48.424;11.258;2022-10-13T10:55:27;96036.38;;;19.96;66.86
25526;BME280;13424;48.424;11.258;2022-10-13T10:58:48;96032.69;;;20.11;67.39
25526;BME280;13424;48.424;11.258;2022-10-13T11:04:44;96025.22;;;19.49;68.52
25526;BME280;13424;48.424;11.258;2022-10-13T11:17:32;96017.78;;;19.65;68.25
25526;BME280;13424;48.424;11.258;2022-10-13T11:19:59;96014.44;;;19.44;68.29
25526;BME280;13424;48.424;11.258;2022-10-13T11:22:29;96004.66;;;19.77;67.75
25526;BME280;13424;48.424;11.258;2022-10-13T11:25:33;96002.00;;;19.72;68.23
25526;BME280;13424;48.424;11.258;2022-10-13T11:27:48;95999.75;;;19.79;67.92
25526;BME280;13424;48.424;11.258;2022-10-13T11:30:44;95988.09;;;19.60;67.70
25526;BME280;13424;48.424;11.258;2022-10-13T11:36:37;95985.84;;;20.53;65.54
25526;BME280;13424;48.424;11.258;2022-10-13T11:39:51;95991.00;;;19.88;66.71
25526;BME280;13424;48.424;11.258;2022-10-13T11:42:47;95988.97;;;20.22;65.31
25526;BME280;13424;48.424;11.258;2022-10-13T11:51:38;95978.00;;;20.51;64.55
25526;BME280;13424;48.424;11.258;2022-10-13T11:54:40;95973.69;;;20.50;64.38
25526;BME280;13424;48.424;11.258;2022-10-13T11:57:24;95966.97;;;20.48;64.86
25526;BME280;13424;48.424;11.258;2022-10-13T11:59:53;95960.97;;;20.51;64.44
25526;BME280;13424;48.424;11.258;2022-10-13T12:02:26;95959.88;;;20.84;63.19
25526;BME280;13424;48.424;11.258;2022-10-13T12:05:17;95960.78;;;20.42;64.26
25526;BME280;13424;48.424;11.258;2022-10-13T12:07:45;95956.19;;;20.24;64.24
25526;BME280;13424;48.424;11.258;2022-10-13T12:10:32;95958.25;;;20.51;64.65
25526;BME280;13424;48.424;11.258;2022-10-13T12:12:59;95949.09;;;20.47;64.92
25526;BME280;13424;48.424;11.258;2022-10-13T12:15:42;95952.72;;;20.37;64.54
25526;BME280;13424;48.424;11.258;2022-10-13T12:18:26;95946.72;;;20.78;62.94
25526;BME280;13424;48.424;11.258;2022-10-13T12:24:21;95928.75;;;20.49;63.65
25526;BME280;13424;48.424;11.258;2022-10-13T12:26:50;95927.56;;;20.55;63.56
25526;BME280;13424;48.424;11.258;2022-10-13T12:29:16;95928.56;;;21.11;62.49
25526;BME280;13424;48.424;11.258;2022-10-13T12:31:45;95928.66;;;21.19;62.91
25526;BME280;13424;48.424;11.258;2022-10-13T12:34:24;95932.66;;;21.41;61.94
25526;BME280;13424;48.424;11.258;2022-10-13T12:37:01;95930.25;;;20.74;64.32
25526;BME280;13424;48.424;11.258;2022-10-13T12:39:29;95931.88;;;21.22;63.14
25526;BME280;13424;48.424;11.258;2022-10-13T12:41:57;95926.22;;;21.04;62.73
25526;BME280;13424;48.424;11.258;2022-10-13T12:44:29;95930.41;;;21.29;62.30
25526;BME280;13424;48.424;11.258;2022-10-13T12:47:00;95928.94;;;21.04;63.14
25526;BME280;13424;48.424;11.258;2022-10-13T12:49:34;95920.72;;;21.09;63.43
25526;BME280;13424;48.424;11.258;2022-10-13T12:54:39;95910.72;;;20.21;64.52
25526;BME280;13424;48.424;11.258;2022-10-13T12:57:35;95913.34;;;20.45;63.83
25526;BME280;13424;48.424;11.258;2022-10-13T13:00:27;95907.25;;;21.04;63.26
25526;BME280;13424;48.424;11.258;2022-10-13T13:03:00;95911.81;;;20.01;65.37
25526;BME280;13424;48.424;11.258;2022-10-13T13:05:39;95911.66;;;20.11;65.48
25526;BME280;13424;48.424;11.258;2022-10-13T13:08:29;95909.84;;;20.25;64.46
25526;BME280;13424;48.424;11.258;2022-10-13T13:11:02;95910.16;;;20.75;64.51
25526;BME280;13424;48.424;11.258;2022-10-13T13:17:12;95898.78;;;20.41;63.66
25526;BME280;13424;48.424;11.258;2022-10-13T13:19:41;95905.78;;;20.79;63.74
25526;BME280;13424;48.424;11.258;2022-10-13T13:22:09;95898.22;;;20.44;64.86
25526;BME280;13424;48.424;11.258;2022-10-13T13:24:35;95897.47;;;20.57;64.15
25526;BME280;13424;48.424;11.258;2022-10-13T13:27:36;95898.34;;;20.33;64.54
25526;BME280;13424;48.424;11.258;2022-10-13T13:30:10;95896.97;;;20.55;65.14
25526;BME280;13424;48.424;11.258;2022-10-13T13:32:36;95894.88;;;20.66;64.99
25526;BME280;13424;48.424;11.258;2022-10-13T13:35:03;95891.03;;;20.34;65.43
25526;BME280;13424;48.424;11.258;2022-10-13T13:37:49;95888.59;;;20.14;66.20
25526;BME280;13424;48.424;11.258;2022-10-13T13:40:19;95898.97;;;19.69;66.18
25526;BME280;13424;48.424;11.258;2022-10-13T13:42:45;95896.53;;;19.91;66.71
25526;BME280;13424;48.424;11.258;2022-10-13T13:45:16;95894.88;;;19.90;66.22
25526;BME280;13424;48.424;11.258;2022-10-13T13:47:42;95890.94;;;20.20;66.06
25526;BME280;13424;48.424;11.258;2022-10-13T13:50:24;95890.88;;;20.25;66.30
25526;BME280;13424;48.424;11.258;2022-10-13T13:52:57;95888.41;;;20.48;66.31
25526;BME280;13424;48.424;11.258;2022-10-13T13:55:24;95891.69;;;20.63;65.44
25526;BME280;13424;48.424;11.258;2022-10-13T13:57:50;95884.59;;;20.49;66.67
25526;BME280;13424;48.424;11.258;2022-10-13T14:00:16;95889.53;;;20.42;65.32
25526;BME280;13424;48.424;11.258;2022-10-13T14:02:45;95892.13;;;20.52;65.50
25526;BME280;13424;48.424;11.258;2022-10-13T14:05:11;95882.69;;;20.30;65.97
25526;BME280;13424;48.424;11.258;2022-10-13T14:07:38;95886.00;;;20.46;66.24
25526;BME280;13424;48.424;11.258;2022-10-13T14:10:06;95876.16;;;20.50;66.10
25526;BME280;13424;48.424;11.258;2022-10-13T14:12:32;95884.13;;;20.42;67.08
25526;BME280;13424;48.424;11.258;2022-10-13T14:14:58;95877.19;;;20.35;66.46
25526;BME280;13424;48.424;11.258;2022-10-13T14:17:27;95872.16;;;20.10;68.07
25526;BME280;13424;48.424;11.258;2022-10-13T14:19:53;95874.19;;;20.18;67.26
25526;BME280;13424;48.424;11.258;2022-10-13T14:22:20;95875.06;;;20.32;67.10
25526;BME280;13424;48.424;11.258;2022-10-13T14:28:52;95873.03;;;20.24;66.65
25526;BME280;13424;48.424;11.258;2022-10-13T14:31:18;95875.22;;;20.22;67.03
25526;BME280;13424;48.424;11.258;2022-10-13T14:33:45;95870.03;;;20.07;67.18
25526;BME280;13424;48.424;11.258;2022-10-13T14:36:11;95866.66;;;19.96;67.59
25526;BME280;13424;48.424;11.258;2022-10-13T14:38:42;95877.03;;;19.89;67.50
25526;BME280;13424;48.424;11.258;2022-10-13T14:41:08;95864.84;;;19.92;68.45
25526;BME280;13424;48.424;11.258;2022-10-13T14:43:34;95864.09;;;20.05;68.12
25526;BME280;13424;48.424;11.258;2022-10-13T14:46:04;95868.19;;;20.21;66.89
25526;BME280;13424;48.424;11.258;2022-10-13T14:48:32;95865.69;;;20.06;68.04
25526;BME280;13424;48.424;11.258;2022-10-13T14:50:58;95857.16;;;20.18;66.87
25526;BME280;13424;48.424;11.258;2022-10-13T14:53:27;95853.25;;;20.05;67.79
25526;BME280;13424;48.424;11.258;2022-10-13T14:55:53;95848.53;;;20.16;67.31
25526;BME280;13424;48.424;11.258;2022-10-13T14:58:19;95848.44;;;20.02;68.61